createdAt,value
2022-11-25T00:00:47.014Z,46.00
2022-11-25T00:03:26.643Z,44.80
2022-11-25T00:05:58.537Z,46.70
2022-11-25T00:08:30.694Z,42.20
2022-11-25T00:11:04.708Z,42.20
2022-11-25T00:13:37.444Z,41.30
2022-11-25T00:16:13.319Z,41.50
2022-11-25T00:18:46.922Z,41.90
2022-11-25T00:21:20.633Z,42.80
2022-11-25T00:23:55.395Z,42.30
2022-11-25T00:26:28.244Z,45.00
2022-11-25T00:29:01.905Z,49.30
2022-11-25T00:31:36.325Z,46.30
2022-11-25T00:34:08.760Z,47.00
2022-11-25T00:36:40.667Z,46.90
2022-11-25T00:39:16.238Z,50.10
2022-11-25T00:42:05.851Z,51.30
2022-11-25T00:44:38.615Z,49.80
2022-11-25T00:47:13.652Z,45.40
2022-11-25T00:49:48.298Z,47.60
2022-11-25T00:52:21.265Z,44.70
2022-11-25T00:54:53.702Z,41.50
2022-11-25T00:57:25.965Z,43.00
2022-11-25T00:59:58.046Z,43.80
2022-11-25T01:02:29.701Z,42.40
2022-11-25T01:05:01.389Z,41.70
2022-11-25T01:07:33.068Z,42.00
2022-11-25T01:10:04.818Z,41.30
2022-11-25T01:12:36.280Z,38.40
2022-11-25T01:15:12.723Z,39.60
2022-11-25T01:17:44.390Z,39.70
2022-11-25T01:20:23.937Z,37.90
2022-11-25T01:22:55.918Z,38.90
2022-11-25T01:25:27.657Z,38.10
2022-11-25T01:27:59.355Z,39.60
2022-11-25T01:30:31.027Z,39.30
2022-11-25T01:33:02.695Z,36.20
2022-11-25T01:35:37.654Z,35.80
2022-11-25T01:38:09.322Z,36.30
2022-11-25T01:40:40.986Z,34.10
2022-11-25T01:43:16.123Z,32.70
2022-11-25T01:45:48.276Z,34.60
2022-11-25T01:48:26.422Z,35.00
2022-11-25T01:50:58.383Z,35.40
2022-11-25T01:53:30.144Z,34.80
2022-11-25T01:56:05.086Z,33.90
2022-11-25T01:58:39.737Z,34.30
2022-11-25T02:01:11.752Z,34.50
2022-11-25T02:03:47.836Z,31.30
2022-11-25T02:06:24.599Z,32.10
2022-11-25T02:08:59.811Z,32.60
2022-11-25T02:11:33.252Z,32.60
2022-11-25T02:14:05.959Z,33.00
2022-11-25T02:16:37.742Z,34.40
2022-11-25T02:19:18.783Z,34.60
2022-11-25T02:21:57.685Z,37.80
2022-11-25T02:24:36.093Z,39.20
2022-11-25T02:27:08.053Z,34.20
2022-11-25T02:29:40.497Z,37.70
2022-11-25T02:32:12.274Z,35.90
2022-11-25T02:34:50.728Z,35.90
2022-11-25T02:37:24.483Z,34.10
2022-11-25T02:39:56.332Z,30.50
2022-11-25T02:42:29.686Z,32.50
2022-11-25T02:45:01.455Z,35.70
2022-11-25T02:47:33.075Z,36.90
2022-11-25T02:50:04.900Z,35.00
2022-11-25T02:52:42.909Z,35.10
2022-11-25T02:55:14.818Z,35.70
2022-11-25T02:57:46.568Z,34.90
2022-11-25T03:00:21.422Z,35.00
2022-11-25T03:02:55.638Z,35.40
2022-11-25T03:05:27.369Z,35.30
2022-11-25T03:07:59.203Z,36.50
2022-11-25T03:10:30.878Z,34.20
2022-11-25T03:13:02.816Z,34.30
2022-11-25T03:15:34.821Z,35.30
2022-11-25T03:18:07.836Z,35.70
2022-11-25T03:20:40.816Z,35.20
2022-11-25T03:23:12.591Z,34.20
2022-11-25T03:25:44.299Z,33.10
2022-11-25T03:28:15.973Z,32.80
2022-11-25T03:30:47.692Z,31.30
2022-11-25T03:33:19.406Z,31.20
2022-11-25T03:35:52.159Z,31.80
2022-11-25T03:38:23.798Z,30.30
2022-11-25T03:40:55.467Z,29.90
2022-11-25T03:43:27.163Z,31.80
2022-11-25T03:45:58.852Z,32.00
2022-11-25T03:48:30.586Z,36.80
2022-11-25T03:51:02.266Z,34.80
2022-11-25T03:53:33.892Z,34.80
2022-11-25T03:56:06.123Z,33.60
2022-11-25T03:58:37.876Z,34.00
2022-11-25T04:01:09.564Z,33.60
2022-11-25T04:03:41.264Z,34.40
2022-11-25T04:06:12.901Z,34.90
2022-11-25T04:08:44.573Z,35.00
2022-11-25T04:11:16.335Z,34.70
2022-11-25T04:13:48.004Z,35.50
2022-11-25T04:16:26.303Z,32.90
2022-11-25T04:18:57.979Z,34.20
2022-11-25T04:21:30.166Z,36.70
2022-11-25T04:24:01.784Z,37.50
2022-11-25T04:26:33.508Z,33.60
2022-11-25T04:29:05.350Z,35.80
2022-11-25T04:31:38.083Z,36.90
2022-11-25T04:34:09.867Z,36.40
2022-11-25T04:36:41.544Z,35.60
2022-11-25T04:39:13.133Z,37.00
2022-11-25T04:41:44.800Z,33.90
2022-11-25T04:44:16.691Z,34.70
2022-11-25T04:46:48.539Z,33.30
2022-11-25T04:49:20.210Z,35.80
2022-11-25T04:51:51.920Z,34.10
2022-11-25T04:54:23.587Z,32.70
2022-11-25T04:56:55.283Z,31.40
2022-11-25T04:59:41.813Z,30.90
2022-11-25T05:02:17.813Z,32.70
2022-11-25T05:04:51.281Z,31.70
2022-11-25T05:07:24.343Z,33.40
2022-11-25T05:09:56.300Z,33.80
2022-11-25T05:12:29.677Z,35.70
2022-11-25T05:15:01.255Z,35.00
2022-11-25T05:17:34.536Z,34.10
2022-11-25T05:20:13.455Z,34.30
2022-11-25T05:22:45.138Z,32.70
2022-11-25T05:25:17.315Z,33.40
2022-11-25T05:27:49.010Z,34.50
2022-11-25T05:30:28.091Z,35.60
2022-11-25T05:32:59.785Z,36.40
2022-11-25T05:35:31.330Z,34.30
2022-11-25T05:38:04.411Z,32.90
2022-11-25T05:40:36.100Z,31.40
2022-11-25T05:43:07.782Z,30.40
2022-11-25T05:45:40.778Z,30.00
2022-11-25T05:48:12.543Z,30.70
2022-11-25T05:50:44.292Z,30.30
2022-11-25T05:53:17.387Z,31.90
2022-11-25T05:55:57.390Z,31.20
2022-11-25T05:58:29.593Z,31.20
2022-11-25T06:01:01.235Z,32.40
2022-11-25T06:03:32.919Z,31.10
2022-11-25T06:06:05.106Z,31.30
2022-11-25T06:08:38.551Z,33.60
2022-11-25T06:11:12.565Z,33.70
2022-11-25T06:13:44.967Z,35.00
2022-11-25T06:16:18.779Z,36.50
2022-11-25T06:18:50.570Z,37.20
2022-11-25T06:21:22.227Z,37.40
2022-11-25T06:23:54.234Z,35.60
2022-11-25T06:26:25.833Z,37.00
2022-11-25T06:28:58.229Z,36.40
2022-11-25T06:31:30.000Z,36.70
2022-11-25T06:34:01.807Z,37.20
2022-11-25T06:36:33.493Z,37.40
2022-11-25T06:39:05.501Z,37.20
2022-11-25T06:42:01.633Z,36.80
2022-11-25T06:44:33.446Z,36.30
2022-11-25T06:47:05.347Z,35.00
2022-11-25T06:49:37.002Z,37.10
2022-11-25T06:52:08.795Z,41.50
2022-11-25T06:54:41.572Z,43.70
2022-11-25T06:57:14.055Z,45.90
2022-11-25T06:59:45.987Z,44.40
2022-11-25T07:02:19.915Z,51.40
2022-11-25T07:04:52.533Z,52.50
2022-11-25T07:07:24.205Z,54.40
2022-11-25T07:09:55.883Z,57.00
2022-11-25T07:12:27.559Z,52.10
2022-11-25T07:14:59.289Z,47.10
2022-11-25T07:17:31.235Z,39.20
2022-11-25T07:20:03.009Z,40.50
2022-11-25T07:22:34.776Z,40.00
2022-11-25T07:25:07.957Z,41.60
2022-11-25T07:27:39.563Z,40.40
2022-11-25T07:31:21.189Z,40.30
2022-11-25T07:33:12.080Z,39.70
2022-11-25T07:35:46.313Z,40.60
2022-11-25T07:38:18.124Z,41.90
2022-11-25T07:40:50.828Z,38.80
2022-11-25T07:43:22.584Z,40.10
2022-11-25T07:45:54.234Z,39.80
2022-11-25T07:48:25.832Z,39.20
2022-11-25T07:50:57.486Z,38.80
2022-11-25T07:53:29.391Z,39.60
2022-11-25T07:56:04.423Z,41.20
2022-11-25T07:58:37.093Z,40.50
2022-11-25T08:01:12.672Z,42.20
2022-11-25T08:03:45.261Z,41.90
2022-11-25T08:06:18.838Z,42.20
2022-11-25T08:08:52.904Z,41.50
2022-11-25T08:11:26.880Z,42.40
2022-11-25T08:13:59.496Z,42.60
2022-11-25T08:16:32.433Z,42.40
2022-11-25T08:19:06.992Z,43.00
2022-11-25T08:21:38.735Z,42.00
2022-11-25T08:24:11.522Z,43.10
2022-11-25T08:26:43.307Z,42.50
2022-11-25T08:29:20.135Z,40.90
2022-11-25T08:31:51.842Z,43.90
2022-11-25T08:34:25.209Z,42.40
2022-11-25T08:36:56.979Z,52.10
2022-11-25T08:39:51.067Z,51.80
2022-11-25T08:42:21.615Z,54.10
2022-11-25T08:44:56.101Z,46.90
2022-11-25T08:47:29.074Z,42.50
2022-11-25T08:50:00.824Z,40.90
2022-11-25T08:52:32.588Z,48.20
2022-11-25T08:55:04.727Z,51.50
2022-11-25T08:57:36.665Z,52.20
2022-11-25T09:00:14.281Z,50.80
2022-11-25T09:02:46.129Z,45.20
2022-11-25T09:05:19.863Z,40.70
2022-11-25T09:07:51.719Z,43.60
2022-11-25T09:10:26.742Z,45.20
2022-11-25T09:12:58.358Z,45.50
2022-11-25T09:15:30.168Z,43.00
2022-11-25T09:18:03.658Z,45.70
2022-11-25T09:20:36.235Z,45.60
2022-11-25T09:23:09.194Z,43.40
2022-11-25T09:25:42.536Z,43.00
2022-11-25T09:28:14.201Z,42.80
2022-11-25T09:30:47.278Z,43.10
2022-11-25T09:33:19.841Z,41.60
2022-11-25T09:35:51.607Z,43.70
2022-11-25T09:38:23.924Z,42.10
2022-11-25T09:41:03.958Z,42.70
2022-11-25T09:44:04.316Z,41.60
2022-11-25T09:46:58.609Z,41.80
2022-11-25T09:49:54.551Z,44.60
2022-11-25T09:52:35.687Z,46.20
2022-11-25T09:57:59.130Z,44.70
2022-11-25T10:00:39.153Z,53.10
2022-11-25T10:03:18.132Z,57.40
2022-11-25T10:06:05.386Z,58.60
2022-11-25T10:08:41.490Z,62.10
2022-11-25T10:11:23.932Z,58.50
2022-11-25T10:13:59.712Z,57.70
2022-11-25T10:16:47.239Z,55.70
2022-11-25T10:19:39.629Z,54.60
2022-11-25T10:22:22.752Z,55.60
2022-11-25T10:24:57.852Z,57.80
2022-11-25T10:27:39.683Z,57.00
2022-11-25T10:30:25.118Z,53.30
2022-11-25T10:33:04.569Z,55.50
2022-11-25T10:35:40.364Z,55.60
2022-11-25T10:38:20.978Z,59.10
2022-11-25T10:40:55.954Z,53.60
2022-11-25T10:43:31.744Z,54.80
2022-11-25T10:46:18.958Z,51.90
2022-11-25T10:49:00.602Z,50.20
2022-11-25T10:51:39.688Z,45.10
2022-11-25T10:54:27.161Z,45.80
2022-11-25T10:57:21.315Z,49.00
2022-11-25T11:00:00.749Z,48.70
2022-11-25T11:02:39.545Z,47.80
2022-11-25T11:05:23.749Z,43.20
2022-11-25T11:08:18.302Z,39.10
2022-11-25T11:11:09.848Z,39.90
2022-11-25T11:13:41.755Z,41.10
2022-11-25T11:16:30.545Z,39.50
2022-11-25T11:19:02.356Z,39.70
2022-11-25T11:21:35.600Z,37.50
2022-11-25T11:24:27.422Z,39.90
2022-11-25T11:27:08.143Z,37.20
2022-11-25T11:29:39.808Z,39.60
2022-11-25T11:32:29.562Z,38.00
2022-11-25T11:35:09.198Z,39.60
2022-11-25T11:37:45.482Z,42.50
2022-11-25T11:40:40.127Z,39.50
2022-11-25T11:43:30.435Z,37.00
2022-11-25T11:46:15.499Z,39.90
2022-11-25T11:48:59.384Z,60.10
2022-11-25T11:51:41.512Z,64.90
2022-11-25T11:54:18.403Z,71.10
2022-11-25T11:56:57.893Z,64.80
2022-11-25T11:59:48.933Z,71.90
2022-11-25T12:02:29.898Z,71.80
2022-11-25T12:05:14.458Z,69.20
2022-11-25T12:07:54.366Z,67.30
2022-11-25T12:10:32.645Z,67.10
2022-11-25T12:13:13.953Z,60.80
2022-11-25T12:15:53.132Z,64.00
2022-11-25T12:18:35.947Z,61.20
2022-11-25T12:21:11.805Z,57.70
2022-11-25T12:23:55.116Z,61.50
2022-11-25T12:26:31.435Z,62.60
2022-11-25T12:29:09.522Z,64.10
2022-11-25T12:31:49.677Z,62.40
2022-11-25T12:34:30.499Z,59.80
2022-11-25T12:37:14.818Z,63.00
2022-11-25T12:39:52.674Z,59.30
2022-11-25T12:42:27.010Z,54.10
2022-11-25T12:45:12.577Z,56.70
2022-11-25T12:47:45.725Z,56.70
2022-11-25T12:50:26.960Z,56.30
2022-11-25T12:55:35.049Z,52.00
2022-11-25T12:58:40.889Z,58.40
2022-11-25T13:01:51.130Z,57.30
2022-11-25T13:04:51.769Z,53.50
2022-11-25T13:07:31.161Z,65.30
2022-11-25T13:10:42.978Z,65.80
2022-11-25T13:13:26.709Z,68.20
2022-11-25T13:16:01.328Z,59.30
2022-11-25T13:18:35.338Z,58.90
2022-11-25T13:21:11.422Z,57.70
2022-11-25T13:23:55.030Z,58.20
2022-11-25T13:26:50.797Z,51.90
2022-11-25T13:29:59.375Z,56.20
2022-11-25T13:32:33.930Z,46.60
2022-11-25T13:35:35.584Z,50.60
2022-11-25T13:38:47.210Z,48.70
2022-11-25T13:41:34.470Z,46.50
2022-11-25T13:44:19.159Z,49.40
2022-11-25T13:46:52.857Z,52.10
2022-11-25T13:49:39.521Z,42.90
2022-11-25T13:52:35.918Z,43.30
2022-11-25T13:55:23.164Z,45.10
2022-11-25T13:58:07.607Z,44.60
2022-11-25T14:01:06.398Z,47.20
2022-11-25T14:03:50.956Z,51.70
2022-11-25T14:06:51.221Z,48.70
2022-11-25T14:09:38.545Z,46.50
2022-11-25T14:12:47.056Z,49.20
2022-11-25T14:15:45.636Z,53.20
2022-11-25T14:19:11.901Z,53.30
2022-11-25T14:21:45.438Z,55.30
2022-11-25T14:24:30.050Z,57.40
2022-11-25T14:27:06.582Z,57.30
2022-11-25T14:29:42.924Z,58.90
2022-11-25T14:32:20.252Z,56.70
2022-11-25T14:34:56.225Z,69.90
2022-11-25T14:37:34.303Z,69.20
2022-11-25T14:40:15.195Z,71.60
2022-11-25T14:42:51.202Z,76.40
2022-11-25T14:45:29.805Z,78.60
2022-11-25T14:48:13.348Z,82.00
2022-11-25T14:50:57.186Z,77.10
2022-11-25T14:53:30.044Z,78.60
2022-11-25T14:56:05.298Z,78.70
2022-11-25T14:58:40.285Z,74.70
2022-11-25T15:01:22.738Z,71.90
2022-11-25T15:04:04.133Z,77.40
2022-11-25T15:06:40.814Z,81.00
2022-11-25T15:09:23.187Z,79.70
2022-11-25T15:11:58.619Z,76.60
2022-11-25T15:14:33.276Z,83.40
2022-11-25T15:17:09.974Z,91.50
2022-11-25T15:19:41.912Z,87.10
2022-11-25T15:22:24.336Z,96.80
2022-11-25T15:25:08.254Z,75.50
2022-11-25T15:27:46.229Z,86.10
2022-11-25T15:30:25.974Z,95.90
2022-11-25T15:32:58.523Z,100.50
2022-11-25T15:35:30.652Z,101.20
2022-11-25T15:38:17.336Z,93.30
2022-11-25T15:40:57.490Z,90.70
2022-11-25T15:43:30.817Z,103.70
2022-11-25T15:46:06.329Z,90.60
2022-11-25T15:48:46.446Z,95.10
2022-11-25T15:51:28.459Z,95.70
2022-11-25T15:54:04.344Z,91.60
2022-11-25T15:56:39.686Z,95.30
2022-11-25T15:59:56.737Z,93.30
2022-11-25T16:02:40.353Z,83.30
2022-11-25T16:05:29.236Z,78.30
2022-11-25T16:08:22.177Z,87.60
2022-11-25T16:10:57.952Z,83.50
2022-11-25T16:13:33.472Z,85.90
2022-11-25T16:16:17.332Z,84.80
2022-11-25T16:19:08.737Z,76.60
2022-11-25T16:22:00.988Z,71.90
2022-11-25T16:24:52.346Z,87.30
2022-11-25T16:27:27.225Z,83.90
2022-11-25T16:30:13.529Z,72.30
2022-11-25T16:32:45.294Z,84.70
2022-11-25T16:35:21.116Z,75.70
2022-11-25T16:37:52.855Z,68.60
2022-11-25T16:40:27.956Z,68.40
2022-11-25T16:42:59.641Z,65.00
2022-11-25T16:45:31.561Z,64.60
2022-11-25T16:48:13.148Z,63.40
2022-11-25T16:50:45.166Z,63.30
2022-11-25T16:53:16.924Z,58.70
2022-11-25T16:55:49.567Z,70.20
2022-11-25T16:58:24.207Z,66.80
2022-11-25T17:00:57.805Z,70.20
2022-11-25T17:03:32.418Z,61.80
2022-11-25T17:06:04.065Z,61.00
2022-11-25T17:08:35.750Z,58.50
2022-11-25T17:11:07.663Z,59.80
2022-11-25T17:13:43.495Z,56.70
2022-11-25T17:16:20.592Z,51.40
2022-11-25T17:18:53.583Z,58.00
2022-11-25T17:21:27.052Z,58.50
2022-11-25T17:24:03.723Z,49.50
2022-11-25T17:26:39.402Z,54.20
2022-11-25T17:29:16.602Z,53.00
2022-11-25T17:31:52.329Z,52.30
2022-11-25T17:34:26.797Z,55.00
2022-11-25T17:36:59.351Z,51.40
2022-11-25T17:39:31.028Z,54.10
2022-11-25T17:42:04.257Z,54.90
2022-11-25T17:44:36.339Z,57.50
2022-11-25T17:47:14.705Z,60.90
2022-11-25T17:49:46.888Z,60.90
2022-11-25T17:52:18.631Z,62.60
2022-11-25T17:54:53.045Z,63.90
2022-11-25T17:57:29.401Z,58.90
2022-11-25T18:00:01.700Z,58.50
2022-11-25T18:02:33.540Z,58.10
2022-11-25T18:05:11.837Z,57.30
2022-11-25T18:07:45.977Z,57.60
2022-11-25T18:10:28.146Z,60.20
2022-11-25T18:13:00.223Z,59.20
2022-11-25T18:15:34.131Z,56.30
2022-11-25T18:18:13.134Z,58.40
2022-11-25T18:20:45.763Z,61.00
2022-11-25T18:23:17.932Z,55.90
2022-11-25T18:25:50.371Z,55.60
2022-11-25T18:28:25.862Z,53.80
2022-11-25T18:30:59.588Z,56.00
2022-11-25T18:33:31.827Z,59.30
2022-11-25T18:36:03.480Z,54.60
2022-11-25T18:38:39.407Z,57.40
2022-11-25T18:41:21.022Z,62.00
2022-11-25T18:43:53.304Z,60.20
2022-11-25T18:46:27.698Z,59.90
2022-11-25T18:49:00.598Z,55.20
2022-11-25T18:51:34.587Z,64.00
2022-11-25T18:54:11.575Z,66.60
2022-11-25T18:56:44.792Z,68.70
2022-11-25T18:59:18.663Z,73.60
2022-11-25T19:01:54.987Z,68.60
2022-11-25T19:04:29.388Z,63.50
2022-11-25T19:07:02.151Z,65.00
2022-11-25T19:09:33.773Z,64.20
2022-11-25T19:12:06.425Z,65.00
2022-11-25T19:14:42.812Z,70.40
2022-11-25T19:17:24.223Z,66.20
2022-11-25T19:19:55.784Z,68.60
2022-11-25T19:22:30.547Z,80.70
2022-11-25T19:25:06.103Z,67.60
2022-11-25T19:27:41.668Z,64.90
2022-11-25T19:30:25.449Z,65.60
2022-11-25T19:33:01.905Z,52.30
2022-11-25T19:35:37.408Z,57.30
2022-11-25T19:38:15.388Z,54.10
2022-11-25T19:40:47.105Z,54.10
2022-11-25T19:43:18.811Z,54.30
2022-11-25T19:45:54.113Z,51.10
2022-11-25T19:48:28.400Z,52.60
2022-11-25T19:51:02.270Z,57.50
2022-11-25T19:53:34.518Z,56.60
2022-11-25T19:56:12.896Z,56.10
2022-11-25T19:58:46.935Z,54.70
2022-11-25T20:01:26.828Z,51.10
2022-11-25T20:04:03.719Z,54.90
2022-11-25T20:06:35.845Z,54.50
2022-11-25T20:09:11.331Z,57.00
2022-11-25T20:11:43.393Z,55.10
2022-11-25T20:14:19.265Z,57.50
2022-11-25T20:16:52.267Z,55.20
2022-11-25T20:19:29.201Z,54.40
2022-11-25T20:22:01.929Z,54.80
2022-11-25T20:24:37.774Z,64.40
2022-11-25T20:27:13.044Z,65.60
2022-11-25T20:29:45.937Z,66.40
2022-11-25T20:32:27.845Z,74.90
2022-11-25T20:35:09.084Z,72.10
2022-11-25T20:37:56.809Z,58.70
2022-11-25T20:40:33.601Z,61.70
2022-11-25T20:43:07.016Z,58.30
2022-11-25T20:45:40.536Z,60.40
2022-11-25T20:48:20.072Z,60.10
2022-11-25T20:50:55.630Z,60.60
2022-11-25T20:53:28.156Z,56.50
2022-11-25T20:56:00.774Z,60.00
2022-11-25T20:58:36.425Z,61.20
2022-11-25T21:01:09.093Z,58.40
2022-11-25T21:03:42.720Z,59.00
2022-11-25T21:06:24.126Z,60.80
2022-11-25T21:08:58.294Z,56.20
2022-11-25T21:11:33.161Z,58.30
2022-11-25T21:14:07.592Z,58.40
2022-11-25T21:16:39.553Z,56.90
2022-11-25T21:19:13.412Z,59.20
2022-11-25T21:21:49.551Z,60.70
2022-11-25T21:24:36.528Z,59.70
2022-11-25T21:27:22.746Z,58.00
2022-11-25T21:29:55.132Z,56.50
2022-11-25T21:32:28.365Z,57.60
2022-11-25T21:35:00.177Z,51.90
2022-11-25T21:37:35.914Z,55.00
2022-11-25T21:40:25.257Z,57.00
2022-11-25T21:42:57.015Z,59.00
2022-11-25T21:45:28.639Z,59.10
2022-11-25T21:48:00.401Z,60.50
2022-11-25T21:50:32.528Z,54.50
2022-11-25T21:53:04.345Z,56.30
2022-11-25T21:55:35.991Z,59.00
2022-11-25T21:58:13.449Z,58.70
2022-11-25T22:00:46.632Z,54.20
2022-11-25T22:03:20.340Z,52.70
2022-11-25T22:05:52.692Z,50.50
2022-11-25T22:08:24.595Z,52.20
2022-11-25T22:10:57.319Z,50.90
2022-11-25T22:13:35.208Z,48.60
2022-11-25T22:16:07.889Z,48.90
2022-11-25T22:18:39.624Z,46.30
2022-11-25T22:21:14.949Z,45.70
2022-11-25T22:23:46.593Z,44.60
2022-11-25T22:26:24.873Z,46.70
2022-11-25T22:28:56.870Z,45.30
2022-11-25T22:31:29.508Z,46.10
2022-11-25T22:34:01.229Z,49.70
2022-11-25T22:36:36.505Z,47.00
2022-11-25T22:39:16.361Z,47.20
2022-11-25T22:41:51.509Z,44.50
2022-11-25T22:44:25.848Z,44.00
2022-11-25T22:46:57.585Z,42.10
2022-11-25T22:49:40.059Z,41.70
2022-11-25T22:52:20.692Z,47.50
2022-11-25T22:54:52.785Z,42.40
2022-11-25T22:57:24.501Z,44.90
2022-11-25T22:59:56.322Z,44.80
2022-11-25T23:02:34.056Z,46.90
2022-11-25T23:05:14.687Z,44.50
2022-11-25T23:07:46.423Z,47.30
2022-11-25T23:10:26.496Z,48.20
2022-11-25T23:12:58.535Z,42.30
2022-11-25T23:15:30.322Z,43.90
2022-11-25T23:18:04.995Z,43.90
2022-11-25T23:20:38.480Z,42.50
2022-11-25T23:23:16.017Z,44.30
2022-11-25T23:25:48.452Z,38.00
2022-11-25T23:28:20.165Z,45.60
2022-11-25T23:30:54.569Z,45.60
2022-11-25T23:33:31.562Z,46.40
2022-11-25T23:36:07.632Z,41.90
2022-11-25T23:38:45.282Z,44.00
2022-11-25T23:41:24.859Z,46.50
2022-11-25T23:43:57.022Z,45.90
2022-11-25T23:46:33.791Z,46.80
2022-11-25T23:49:10.713Z,48.50
2022-11-25T23:51:42.456Z,46.00
2022-11-25T23:54:17.697Z,46.30
2022-11-25T23:56:49.727Z,45.00
2022-11-25T23:59:21.318Z,42.10
